Wolston, United Kingdom
Current Conditions -  °F | °C
As of 1:50 AM on Thursday 18 Dec 2014 (Local Time) from EGBE Reporting Station
Drizzle Drizzle  
Wind Chill: 54°   Ceiling: 900
Heat Index: 54°   Visibility: 4mi
Dew Point: 52°   Wind: 9mph
Humidity: 94%   Direction: 240°WSW
Pressure: 29.74"   Gusts: NA
Location:  52.38°N, 1.4°W
Report Text: EGBE 180150Z 24008KT 6000 -DZ SCT005 BKN009 12/11 Q1007
Loading
Personal Weather Stations






























Interactive Weather Map New forecast layout! Learn more

10-Day Weather Forecast

Advertisements
Track Severe Weather on mobile